Time;durP1;ratioP1;P1;durP2;ratioP2;P2;SDS_P1;SDS_P2;PMS_P1;PMS_P2;Temp;Humidity;BMP_temperature;BMP_pressure;BME280_temperature;BME280_humidity;BME280_pressure;Samples;Min_cycle;Max_cycle;Signal;HPM_P1;HPM_P2
2023/09/22 00:02:13;;;;;;;7.55;6.10;;;;;;;;;;5164060;27;20467;-72
2023/09/22 00:04:59;;;;;;;9.50;6.88;;;;;;;;;;5177947;27;20018;-72
2023/09/22 00:07:45;;;;;;;9.95;6.07;;;;;;;;;;5177793;27;20021;-72
2023/09/22 00:10:30;;;;;;;8.40;6.30;;;;;;;;;;5178509;27;20026;-71
2023/09/22 00:13:16;;;;;;;7.40;6.07;;;;;;;;;;5178114;27;20352;-72
2023/09/22 00:16:02;;;;;;;8.88;5.90;;;;;;;;;;5179119;27;20018;-72
2023/09/22 00:18:48;;;;;;;6.90;5.97;;;;;;;;;;5162129;27;20030;-72
2023/09/22 00:21:34;;;;;;;8.93;6.47;;;;;;;;;;5177382;27;20348;-72
2023/09/22 00:24:19;;;;;;;9.57;6.47;;;;;;;;;;5163247;27;20018;-72
2023/09/22 00:27:05;;;;;;;12.65;6.43;;;;;;;;;;5162075;27;20018;-71
2023/09/22 00:29:51;;;;;;;12.50;6.53;;;;;;;;;;5162625;27;20074;-72
2023/09/22 00:32:37;;;;;;;6.78;5.80;;;;;;;;;;5162255;27;20018;-72
2023/09/22 00:35:22;;;;;;;7.68;5.60;;;;;;;;;;5176777;27;20101;-73
2023/09/22 00:38:08;;;;;;;7.47;5.70;;;;;;;;;;5163812;27;20021;-72
2023/09/22 00:40:54;;;;;;;10.15;5.57;;;;;;;;;;5161763;27;20089;-72
2023/09/22 00:43:40;;;;;;;9.00;5.63;;;;;;;;;;5177193;27;20022;-72
2023/09/22 00:46:26;;;;;;;9.07;5.50;;;;;;;;;;5177840;27;20050;-72
2023/09/22 00:49:12;;;;;;;8.45;5.95;;;;;;;;;;5177510;27;20113;-71
2023/09/22 00:51:58;;;;;;;6.25;5.28;;;;;;;;;;5177543;27;20018;-72
2023/09/22 00:54:44;;;;;;;6.65;5.32;;;;;;;;;;5176637;27;20018;-72
2023/09/22 00:57:30;;;;;;;7.68;5.65;;;;;;;;;;5177521;27;20051;-72
2023/09/22 01:00:18;;;;;;;8.38;5.95;;;;;;;;;;5162496;27;20109;-72
2023/09/22 01:03:03;;;;;;;9.05;5.60;;;;;;;;;;5161992;27;20022;-72
2023/09/22 01:05:49;;;;;;;9.05;5.50;;;;;;;;;;5162721;27;20339;-72
2023/09/22 01:08:36;;;;;;;8.23;5.53;;;;;;;;;;5161460;27;20022;-71
2023/09/22 01:11:21;;;;;;;7.57;5.43;;;;;;;;;;5147420;27;20018;-71
2023/09/22 01:14:07;;;;;;;9.57;5.70;;;;;;;;;;5162234;27;20052;-72
2023/09/22 01:16:53;;;;;;;8.43;6.07;;;;;;;;;;5177407;27;20101;-73
2023/09/22 01:19:38;;;;;;;6.78;5.50;;;;;;;;;;5176707;27;20029;-71
2023/09/22 01:22:24;;;;;;;8.13;5.90;;;;;;;;;;5176499;27;20025;-72
2023/09/22 01:25:10;;;;;;;8.35;5.35;;;;;;;;;;5176334;27;20408;-72
2023/09/22 01:27:56;;;;;;;7.10;5.43;;;;;;;;;;5177409;27;20083;-72
2023/09/22 01:30:42;;;;;;;8.73;5.82;;;;;;;;;;5176263;27;20026;-73
2023/09/22 01:33:28;;;;;;;8.10;5.43;;;;;;;;;;5176932;27;20036;-72
2023/09/22 01:36:14;;;;;;;7.30;5.70;;;;;;;;;;5177072;27;20033;-72
2023/09/22 01:39:01;;;;;;;6.60;5.57;;;;;;;;;;5159573;27;20117;-72
2023/09/22 01:41:47;;;;;;;7.13;6.25;;;;;;;;;;5177046;27;20026;-72
2023/09/22 01:44:33;;;;;;;7.93;6.00;;;;;;;;;;5175793;27;20010;-72
2023/09/22 01:47:18;;;;;;;9.05;5.80;;;;;;;;;;5176237;27;20022;-71
2023/09/22 01:50:04;;;;;;;10.00;6.32;;;;;;;;;;5159964;27;20070;-71
2023/09/22 01:52:52;;;;;;;9.35;6.03;;;;;;;;;;5175519;27;20098;-72
2023/09/22 01:55:38;;;;;;;7.65;5.65;;;;;;;;;;5176181;27;20026;-71
2023/09/22 01:58:23;;;;;;;7.50;5.97;;;;;;;;;;5175736;27;20014;-72
2023/09/22 02:01:09;;;;;;;8.13;6.50;;;;;;;;;;5175914;27;20128;-73
2023/09/22 02:03:55;;;;;;;9.32;6.50;;;;;;;;;;5176019;27;20018;-72
2023/09/22 02:06:41;;;;;;;9.82;6.50;;;;;;;;;;5175775;27;20022;-72
2023/09/22 02:09:27;;;;;;;8.30;6.03;;;;;;;;;;5176302;27;20022;-73
2023/09/22 02:12:13;;;;;;;8.90;6.20;;;;;;;;;;5176331;27;20028;-73
2023/09/22 02:15:00;;;;;;;10.70;6.63;;;;;;;;;;5176927;27;20038;-72
2023/09/22 02:17:48;;;;;;;9.63;6.53;;;;;;;;;;5162183;27;20022;-72
2023/09/22 02:20:35;;;;;;;8.25;6.85;;;;;;;;;;5175112;27;20363;-71
2023/09/22 02:23:21;;;;;;;7.65;5.78;;;;;;;;;;5175708;27;20101;-72
2023/09/22 02:26:07;;;;;;;10.20;6.60;;;;;;;;;;5176682;27;20018;-71
2023/09/22 02:28:53;;;;;;;9.15;6.70;;;;;;;;;;5176711;27;20037;-71
2023/09/22 02:31:39;;;;;;;7.50;6.13;;;;;;;;;;5176197;27;20105;-72
2023/09/22 02:34:25;;;;;;;11.25;5.93;;;;;;;;;;5176578;27;20034;-73
2023/09/22 02:37:10;;;;;;;9.73;5.93;;;;;;;;;;5175699;27;20474;-72
2023/09/22 02:39:56;;;;;;;9.98;6.00;;;;;;;;;;5175788;27;20026;-71
2023/09/22 02:42:43;;;;;;;11.68;7.25;;;;;;;;;;5160912;27;20030;-72
2023/09/22 02:45:28;;;;;;;12.27;6.40;;;;;;;;;;5176254;27;20082;-72
2023/09/22 02:48:14;;;;;;;7.45;6.20;;;;;;;;;;5161695;27;20011;-73
2023/09/22 02:51:04;;;;;;;10.10;6.85;;;;;;;;;;5177425;27;20099;-73
2023/09/22 02:53:50;;;;;;;10.50;6.38;;;;;;;;;;5179618;27;20061;-72
2023/09/22 02:56:37;;;;;;;9.98;6.38;;;;;;;;;;5164363;27;20023;-72
2023/09/22 02:59:23;;;;;;;9.32;6.47;;;;;;;;;;5164978;27;20122;-71
2023/09/22 03:02:09;;;;;;;13.13;6.43;;;;;;;;;;5164969;27;20053;-72
2023/09/22 03:04:54;;;;;;;9.65;6.97;;;;;;;;;;5179005;27;20451;-71
2023/09/22 03:07:40;;;;;;;8.77;6.88;;;;;;;;;;5164904;27;20085;-72
2023/09/22 03:10:26;;;;;;;10.40;6.95;;;;;;;;;;5179887;27;20029;-71
2023/09/22 03:13:12;;;;;;;8.18;6.90;;;;;;;;;;5164399;27;20026;-72
2023/09/22 03:15:57;;;;;;;12.43;7.35;;;;;;;;;;5179030;27;20018;-71
2023/09/22 03:18:43;;;;;;;11.18;6.60;;;;;;;;;;5179128;27;20057;-72
2023/09/22 03:21:29;;;;;;;14.13;6.78;;;;;;;;;;5164544;27;20022;-73
2023/09/22 03:24:14;;;;;;;10.00;7.80;;;;;;;;;;5179140;27;20018;-71
2023/09/22 03:27:00;;;;;;;10.48;7.45;;;;;;;;;;5163982;27;20026;-73
2023/09/22 03:29:46;;;;;;;12.27;8.38;;;;;;;;;;5178872;27;20061;-72
2023/09/22 03:32:32;;;;;;;12.05;8.50;;;;;;;;;;5178668;27;20082;-72
2023/09/22 03:35:18;;;;;;;13.40;8.32;;;;;;;;;;5179873;27;20443;-73
2023/09/22 03:38:08;;;;;;;10.23;8.65;;;;;;;;;;5179116;27;20018;-72
2023/09/22 03:41:00;;;;;;;14.30;7.57;;;;;;;;;;5179097;27;20022;-71
2023/09/22 03:43:46;;;;;;;8.95;7.15;;;;;;;;;;5179321;27;20034;-71
2023/09/22 03:46:31;;;;;;;9.13;6.30;;;;;;;;;;5178559;27;20022;-71
2023/09/22 03:49:17;;;;;;;9.27;6.35;;;;;;;;;;5178202;27;20039;-71
2023/09/22 03:52:04;;;;;;;11.05;7.10;;;;;;;;;;5178648;27;20014;-70
2023/09/22 03:54:49;;;;;;;11.95;6.82;;;;;;;;;;5178484;27;20030;-71
2023/09/22 03:57:35;;;;;;;11.73;7.38;;;;;;;;;;5178554;27;20447;-72
2023/09/22 04:00:27;;;;;;;14.82;6.85;;;;;;;;;;5179034;27;20026;-72
2023/09/22 04:03:13;;;;;;;10.75;6.20;;;;;;;;;;5177893;27;20456;-72
2023/09/22 04:06:00;;;;;;;8.73;6.45;;;;;;;;;;5177867;27;20029;-73
2023/09/22 04:08:46;;;;;;;10.10;6.30;;;;;;;;;;5163910;27;20026;-74
2023/09/22 04:11:31;;;;;;;7.65;5.88;;;;;;;;;;5178285;27;20018;-72
2023/09/22 04:14:17;;;;;;;8.30;5.88;;;;;;;;;;5177724;27;20046;-73
2023/09/22 04:17:03;;;;;;;11.18;5.60;;;;;;;;;;5177917;27;20014;-73
2023/09/22 04:19:49;;;;;;;10.48;6.07;;;;;;;;;;5178656;27;20033;-72
2023/09/22 04:22:35;;;;;;;10.90;6.25;;;;;;;;;;5177738;27;20050;-71
2023/09/22 04:25:29;;;;;;;10.57;6.00;;;;;;;;;;5178490;27;20046;-72
2023/09/22 04:28:21;;;;;;;8.50;6.10;;;;;;;;;;5178324;27;20349;-72
2023/09/22 04:31:06;;;;;;;9.73;6.68;;;;;;;;;;5176900;27;20006;-72
2023/09/22 04:33:52;;;;;;;15.25;6.45;;;;;;;;;;5177797;27;20419;-72
2023/09/22 04:36:39;;;;;;;8.02;6.00;;;;;;;;;;5179743;27;20029;-73
2023/09/22 04:39:25;;;;;;;9.52;6.05;;;;;;;;;;5177312;27;20015;-71
2023/09/22 04:42:10;;;;;;;9.35;6.18;;;;;;;;;;5177480;27;20029;-72
2023/09/22 04:44:56;;;;;;;13.32;6.00;;;;;;;;;;5177583;27;20436;-72
2023/09/22 04:47:42;;;;;;;11.55;6.53;;;;;;;;;;5178119;27;20029;-72
2023/09/22 04:50:27;;;;;;;9.05;6.20;;;;;;;;;;5177131;27;20042;-72
2023/09/22 04:53:13;;;;;;;9.23;5.82;;;;;;;;;;5177946;27;20026;-72
2023/09/22 04:56:06;;;;;;;9.95;5.90;;;;;;;;;;5177475;27;20015;-72
2023/09/22 04:58:53;;;;;;;7.13;5.72;;;;;;;;;;5162705;27;20029;-73
2023/09/22 05:01:39;;;;;;;12.82;6.75;;;;;;;;;;5177683;27;20022;-71
2023/09/22 05:04:25;;;;;;;12.23;6.53;;;;;;;;;;5177057;27;20363;-72
2023/09/22 05:07:11;;;;;;;10.55;6.82;;;;;;;;;;5177002;27;20082;-72
2023/09/22 05:09:59;;;;;;;8.80;6.35;;;;;;;;;;5177685;27;20010;-71
2023/09/22 05:12:44;;;;;;;13.68;7.35;;;;;;;;;;5176728;27;20018;-73
2023/09/22 05:15:31;;;;;;;17.23;7.45;;;;;;;;;;5177012;27;20042;-71
2023/09/22 05:18:17;;;;;;;12.05;6.43;;;;;;;;;;5176943;27;20026;-72
2023/09/22 05:21:03;;;;;;;11.73;6.32;;;;;;;;;;5176628;27;20069;-73
2023/09/22 05:23:48;;;;;;;10.45;6.20;;;;;;;;;;5177350;27;20363;-72
2023/09/22 05:26:35;;;;;;;10.00;6.60;;;;;;;;;;5176177;27;20108;-72
2023/09/22 05:29:21;;;;;;;12.95;6.50;;;;;;;;;;5176856;27;20018;-72
2023/09/22 05:32:08;;;;;;;11.00;6.50;;;;;;;;;;5177474;27;20037;-73
2023/09/22 05:34:53;;;;;;;10.05;6.85;;;;;;;;;;5177003;27;20078;-72
2023/09/22 05:37:39;;;;;;;10.52;6.00;;;;;;;;;;5161840;27;20014;-72
2023/09/22 05:40:26;;;;;;;8.35;6.32;;;;;;;;;;5175788;27;20029;-72
2023/09/22 05:43:12;;;;;;;11.38;6.60;;;;;;;;;;5177023;27;20034;-72
2023/09/22 05:45:57;;;;;;;9.13;6.82;;;;;;;;;;5176377;27;20093;-72
2023/09/22 05:48:43;;;;;;;11.70;7.68;;;;;;;;;;5175621;27;20022;-73
2023/09/22 05:51:32;;;;;;;24.45;14.85;;;;;;;;;;5176172;27;20018;-72
2023/09/22 05:54:18;;;;;;;12.63;6.65;;;;;;;;;;5162286;27;20042;-72
2023/09/22 05:57:04;;;;;;;11.32;6.55;;;;;;;;;;5160598;27;20101;-73
2023/09/22 05:59:50;;;;;;;8.80;5.90;;;;;;;;;;5176020;27;20037;-72
2023/09/22 06:02:36;;;;;;;9.00;6.80;;;;;;;;;;5176496;27;20018;-73
2023/09/22 06:05:24;;;;;;;9.43;6.63;;;;;;;;;;5176310;27;20090;-72
2023/09/22 06:08:11;;;;;;;8.40;6.30;;;;;;;;;;5177450;27;20044;-72
2023/09/22 06:11:01;;;;;;;10.80;6.93;;;;;;;;;;5175639;27;20097;-73
2023/09/22 06:13:47;;;;;;;30.08;7.40;;;;;;;;;;5176209;27;20336;-72
2023/09/22 06:16:32;;;;;;;10.95;6.68;;;;;;;;;;5176818;27;20027;-72
2023/09/22 06:19:20;;;;;;;10.38;7.00;;;;;;;;;;5160633;27;20014;-73
2023/09/22 06:22:05;;;;;;;12.50;7.30;;;;;;;;;;5176115;27;20060;-72
2023/09/22 06:24:51;;;;;;;9.30;6.95;;;;;;;;;;5175609;27;20010;-73
2023/09/22 06:27:36;;;;;;;11.05;6.70;;;;;;;;;;5179913;27;20014;-72
2023/09/22 06:30:23;;;;;;;10.80;6.88;;;;;;;;;;5179912;27;20105;-72
2023/09/22 06:33:08;;;;;;;10.43;7.03;;;;;;;;;;5180839;27;20347;-73
2023/09/22 06:36:04;;;;;;;12.65;6.70;;;;;;;;;;5179471;27;20233;-72
2023/09/22 06:38:50;;;;;;;9.85;6.97;;;;;;;;;;5180215;27;20418;-73
2023/09/22 06:41:36;;;;;;;10.20;6.15;;;;;;;;;;5180401;27;20026;-71
2023/09/22 06:44:22;;;;;;;9.48;6.68;;;;;;;;;;5179269;27;20018;-72
2023/09/22 06:47:09;;;;;;;13.15;6.95;;;;;;;;;;5179370;27;20014;-74
2023/09/22 06:49:56;;;;;;;13.50;7.00;;;;;;;;;;5180072;27;20065;-72
2023/09/22 06:52:41;;;;;;;10.20;7.28;;;;;;;;;;5180488;27;20033;-72
2023/09/22 06:55:27;;;;;;;13.68;6.95;;;;;;;;;;5179257;27;20086;-72
2023/09/22 06:58:13;;;;;;;12.57;6.90;;;;;;;;;;5164011;27;20375;-73
2023/09/22 07:01:06;;;;;;;12.68;7.45;;;;;;;;;;5178912;27;20018;-73
2023/09/22 07:03:51;;;;;;;13.15;7.57;;;;;;;;;;5180356;27;20086;-73
2023/09/22 07:06:37;;;;;;;11.82;7.10;;;;;;;;;;5180130;27;20119;-72
2023/09/22 07:09:23;;;;;;;12.05;7.15;;;;;;;;;;5168028;27;20018;-73
2023/09/22 07:12:09;;;;;;;10.25;6.95;;;;;;;;;;5180112;27;20376;-72
2023/09/22 07:14:54;;;;;;;8.90;6.55;;;;;;;;;;5183429;27;20033;-72
2023/09/22 07:17:40;;;;;;;9.57;6.82;;;;;;;;;;5181903;27;20034;-72
2023/09/22 07:20:26;;;;;;;14.10;7.75;;;;;;;;;;5182117;27;20053;-72
2023/09/22 07:23:12;;;;;;;9.70;7.32;;;;;;;;;;5183504;27;20018;-72
2023/09/22 07:25:58;;;;;;;10.52;6.65;;;;;;;;;;5180899;27;20018;-72
2023/09/22 07:28:45;;;;;;;9.73;6.88;;;;;;;;;;5179113;27;20025;-70
2023/09/22 07:31:31;;;;;;;13.35;7.40;;;;;;;;;;5179369;27;20457;-74
2023/09/22 07:34:16;;;;;;;14.82;8.95;;;;;;;;;;5179390;27;20022;-73
2023/09/22 07:37:02;;;;;;;12.15;7.70;;;;;;;;;;5177302;27;20109;-73
2023/09/22 07:39:48;;;;;;;13.40;8.63;;;;;;;;;;5185233;27;20021;-72
2023/09/22 07:42:34;;;;;;;11.43;7.20;;;;;;;;;;5179927;27;20455;-74
2023/09/22 07:45:19;;;;;;;8.52;6.60;;;;;;;;;;5163903;27;20022;-72
2023/09/22 07:48:05;;;;;;;10.93;7.20;;;;;;;;;;5178191;27;20018;-72
2023/09/22 07:50:52;;;;;;;10.95;7.40;;;;;;;;;;5162904;27;20057;-73
2023/09/22 07:53:38;;;;;;;9.10;6.82;;;;;;;;;;5177854;27;20026;-73
2023/09/22 07:56:24;;;;;;;10.70;7.22;;;;;;;;;;5178692;27;20463;-72
2023/09/22 07:59:09;;;;;;;11.32;7.38;;;;;;;;;;5177701;27;20367;-72
2023/09/22 08:01:55;;;;;;;15.75;7.40;;;;;;;;;;5178755;27;20045;-72
2023/09/22 08:04:41;;;;;;;13.05;6.60;;;;;;;;;;5178771;27;20465;-72
2023/09/22 08:07:27;;;;;;;10.15;6.30;;;;;;;;;;5178477;27;20034;-71
2023/09/22 08:10:13;;;;;;;10.57;6.32;;;;;;;;;;5178258;27;20018;-71
2023/09/22 08:12:59;;;;;;;13.60;6.18;;;;;;;;;;5177606;27;20309;-72
2023/09/22 08:15:45;;;;;;;12.23;6.22;;;;;;;;;;5177735;27;20049;-71
2023/09/22 08:18:37;;;;;;;9.55;6.25;;;;;;;;;;5178582;27;20507;-72
2023/09/22 08:21:25;;;;;;;11.48;6.45;;;;;;;;;;5178099;27;20041;-72
2023/09/22 08:24:11;;;;;;;13.10;6.68;;;;;;;;;;5178324;27;20324;-72
2023/09/22 08:26:59;;;;;;;10.98;6.43;;;;;;;;;;5178769;27;20022;-72
2023/09/22 08:29:47;;;;;;;8.23;6.13;;;;;;;;;;5162608;27;20093;-72
2023/09/22 08:32:33;;;;;;;10.45;6.32;;;;;;;;;;5177194;27;20036;-72
2023/09/22 08:35:18;;;;;;;9.90;6.20;;;;;;;;;;5177291;27;20068;-71
2023/09/22 08:38:04;;;;;;;13.50;6.63;;;;;;;;;;5177333;27;20151;-72
2023/09/22 08:40:50;;;;;;;11.68;6.32;;;;;;;;;;5177632;27;20022;-72
2023/09/22 08:43:36;;;;;;;11.50;6.53;;;;;;;;;;5176856;27;20026;-72
2023/09/22 08:46:23;;;;;;;13.93;6.35;;;;;;;;;;5178000;27;20067;-72
2023/09/22 08:49:09;;;;;;;16.23;7.00;;;;;;;;;;5176830;27;20045;-73
2023/09/22 08:51:55;;;;;;;11.52;6.22;;;;;;;;;;5176966;27;20027;-72
2023/09/22 08:54:41;;;;;;;11.95;6.88;;;;;;;;;;5178218;27;20026;-71
2023/09/22 08:57:29;;;;;;;11.25;5.90;;;;;;;;;;5176735;27;20046;-71
2023/09/22 09:00:18;;;;;;;10.35;6.28;;;;;;;;;;5177138;27;20022;-73
2023/09/22 09:03:08;;;;;;;14.85;6.43;;;;;;;;;;5162116;27;20022;-72
2023/09/22 09:06:04;;;;;;;10.63;6.13;;;;;;;;;;5162553;27;20419;-73
2023/09/22 09:09:14;;;;;;;12.75;5.82;;;;;;;;;;5176642;27;20026;-72
2023/09/22 09:12:00;;;;;;;15.65;5.80;;;;;;;;;;5177142;27;20022;-73
2023/09/22 09:14:49;;;;;;;12.75;6.47;;;;;;;;;;5177176;27;20026;-71
2023/09/22 09:17:35;;;;;;;12.45;6.50;;;;;;;;;;5177121;27;20014;-71
2023/09/22 09:20:20;;;;;;;13.02;6.35;;;;;;;;;;5161602;27;20327;-72
2023/09/22 09:23:16;;;;;;;12.23;5.88;;;;;;;;;;5176746;27;20022;-71
2023/09/22 09:26:02;;;;;;;13.13;6.43;;;;;;;;;;5161996;27;20427;-70
2023/09/22 09:28:48;;;;;;;12.00;6.15;;;;;;;;;;5177538;27;20026;-69
2023/09/22 09:31:43;;;;;;;10.77;5.70;;;;;;;;;;5176156;27;20014;-71
2023/09/22 09:34:39;;;;;;;13.25;6.00;;;;;;;;;;5176809;27;20030;-71
2023/09/22 09:37:26;;;;;;;11.48;5.90;;;;;;;;;;5176804;27;20026;-71
2023/09/22 09:40:11;;;;;;;14.75;5.88;;;;;;;;;;5176826;27;20018;-71
2023/09/22 09:42:58;;;;;;;14.15;6.40;;;;;;;;;;5175691;27;20026;-71
2023/09/22 09:45:48;;;;;;;15.63;6.57;;;;;;;;;;5176127;27;20026;-72
2023/09/22 09:48:37;;;;;;;10.20;5.35;;;;;;;;;;5176670;27;20032;-71
2023/09/22 09:51:24;;;;;;;11.10;5.80;;;;;;;;;;5176966;27;20366;-71
2023/09/22 09:54:11;;;;;;;10.70;5.78;;;;;;;;;;5176533;27;20014;-71
2023/09/22 09:56:57;;;;;;;12.68;5.97;;;;;;;;;;5176679;27;20026;-71
2023/09/22 09:59:44;;;;;;;13.32;5.47;;;;;;;;;;5176660;27;20057;-72
2023/09/22 10:02:30;;;;;;;9.30;5.55;;;;;;;;;;5175648;27;20022;-72
2023/09/22 10:05:16;;;;;;;9.85;5.57;;;;;;;;;;5176026;27;20105;-71
2023/09/22 10:08:01;;;;;;;9.77;5.55;;;;;;;;;;5175663;27;20014;-71
2023/09/22 10:10:49;;;;;;;16.02;5.32;;;;;;;;;;5175209;27;20014;-71
2023/09/22 10:13:35;;;;;;;13.48;5.25;;;;;;;;;;5176290;27;20023;-70
2023/09/22 10:16:28;;;;;;;13.23;4.70;;;;;;;;;;5176448;27;20033;-71
2023/09/22 10:19:14;;;;;;;9.90;4.90;;;;;;;;;;5176372;27;20026;-72
2023/09/22 10:22:10;;;;;;;11.00;5.13;;;;;;;;;;5176356;27;20034;-72
2023/09/22 10:25:11;;;;;;;10.52;4.95;;;;;;;;;;5176434;27;20018;-72
2023/09/22 10:27:58;;;;;;;10.35;5.15;;;;;;;;;;5176257;27;20043;-72
2023/09/22 10:30:43;;;;;;;11.23;4.97;;;;;;;;;;5174728;27;20355;-72
2023/09/22 10:33:32;;;;;;;19.25;5.60;;;;;;;;;;5175324;27;20027;-71
2023/09/22 10:36:37;;;;;;;12.02;5.15;;;;;;;;;;5176150;27;20031;-71
2023/09/22 10:39:22;;;;;;;9.70;5.57;;;;;;;;;;5176299;27;20037;-71
2023/09/22 10:42:08;;;;;;;17.52;6.35;;;;;;;;;;5176455;27;20105;-71
2023/09/22 10:45:01;;;;;;;9.73;6.20;;;;;;;;;;5175430;27;20021;-71
2023/09/22 10:47:47;;;;;;;14.13;5.78;;;;;;;;;;5176927;27;20045;-71
2023/09/22 10:50:33;;;;;;;13.63;6.70;;;;;;;;;;5176431;27;20042;-74
2023/09/22 10:53:20;;;;;;;10.00;5.97;;;;;;;;;;5176128;27;20085;-72
2023/09/22 10:56:05;;;;;;;12.05;7.40;;;;;;;;;;5175965;27;20115;-71
2023/09/22 10:58:53;;;;;;;12.32;7.22;;;;;;;;;;5175789;27;20483;-71
2023/09/22 11:01:48;;;;;;;17.38;8.15;;;;;;;;;;5175335;27;20090;-71
2023/09/22 11:04:41;;;;;;;14.95;7.93;;;;;;;;;;5175708;27;20014;-72
2023/09/22 11:07:30;;;;;;;19.23;8.75;;;;;;;;;;5176335;27;20470;-71
2023/09/22 11:10:20;;;;;;;15.40;7.70;;;;;;;;;;5175705;27;20038;-72
2023/09/22 11:13:07;;;;;;;11.32;8.23;;;;;;;;;;5178180;27;20340;-72
2023/09/22 11:15:56;;;;;;;16.25;8.27;;;;;;;;;;5179744;27;20022;-72
2023/09/22 11:18:41;;;;;;;13.10;9.00;;;;;;;;;;5179987;27;20108;-72
2023/09/22 11:21:37;;;;;;;16.58;8.30;;;;;;;;;;5178589;27;20435;-72
2023/09/22 11:24:22;;;;;;;15.98;7.55;;;;;;;;;;5178577;27;20014;-72
2023/09/22 11:27:10;;;;;;;10.02;6.60;;;;;;;;;;5179565;27;20018;-72
2023/09/22 11:30:16;;;;;;;9.88;5.10;;;;;;;;;;5179184;27;20018;-72
2023/09/22 11:33:02;;;;;;;9.63;5.03;;;;;;;;;;5179514;27;20018;-72
2023/09/22 11:35:51;;;;;;;9.90;4.57;;;;;;;;;;5149717;27;20022;-72
2023/09/22 11:38:40;;;;;;;12.65;4.75;;;;;;;;;;5151126;27;20439;-73
2023/09/22 11:41:26;;;;;;;6.85;4.40;;;;;;;;;;5154619;27;20019;-72
2023/09/22 11:44:13;;;;;;;11.93;4.55;;;;;;;;;;5167117;27;20139;-70
2023/09/22 11:46:59;;;;;;;10.05;4.20;;;;;;;;;;5165377;27;20030;-70
2023/09/22 11:49:44;;;;;;;9.05;4.53;;;;;;;;;;5163032;27;20904;-72
2023/09/22 11:52:30;;;;;;;8.95;4.38;;;;;;;;;;5166016;27;20022;-72
2023/09/22 11:55:16;;;;;;;8.77;3.95;;;;;;;;;;5163654;27;20030;-71
2023/09/22 11:58:04;;;;;;;11.93;3.90;;;;;;;;;;5163211;27;20063;-71
2023/09/22 12:00:50;;;;;;;6.53;3.80;;;;;;;;;;5156856;27;20037;-71
2023/09/22 12:03:36;;;;;;;13.05;4.05;;;;;;;;;;5159978;27;20061;-71
2023/09/22 12:06:21;;;;;;;11.95;4.53;;;;;;;;;;5149438;27;20022;-72
2023/09/22 12:09:08;;;;;;;5.45;3.78;;;;;;;;;;5150960;27;20364;-71
2023/09/22 12:11:54;;;;;;;8.02;4.30;;;;;;;;;;5158452;27;20033;-72
2023/09/22 12:14:40;;;;;;;11.27;4.00;;;;;;;;;;5161888;27;20750;-72
2023/09/22 12:17:26;;;;;;;11.52;3.83;;;;;;;;;;5159898;27;20045;-72
2023/09/22 12:20:12;;;;;;;11.63;3.50;;;;;;;;;;5158984;27;20026;-72
2023/09/22 12:22:58;;;;;;;8.00;3.20;;;;;;;;;;5155724;27;20030;-72
2023/09/22 12:25:45;;;;;;;5.95;3.00;;;;;;;;;;5159904;27;20461;-72
2023/09/22 12:28:31;;;;;;;7.30;3.33;;;;;;;;;;5164495;27;20539;-72
2023/09/22 12:31:17;;;;;;;9.98;3.70;;;;;;;;;;5141539;27;20429;-70
2023/09/22 12:34:02;;;;;;;10.05;3.42;;;;;;;;;;5157401;27;20592;-71
2023/09/22 12:36:48;;;;;;;9.52;3.85;;;;;;;;;;5157763;27;20022;-71
2023/09/22 12:39:33;;;;;;;8.90;3.60;;;;;;;;;;5161013;27;20165;-72
2023/09/22 12:42:19;;;;;;;11.88;3.45;;;;;;;;;;5152832;27;20262;-71
2023/09/22 12:45:05;;;;;;;10.05;3.53;;;;;;;;;;5152280;27;20030;-71
2023/09/22 12:47:51;;;;;;;7.78;3.35;;;;;;;;;;5167283;27;20018;-71
2023/09/22 12:50:37;;;;;;;10.82;3.60;;;;;;;;;;5164016;27;20050;-71
2023/09/22 12:53:23;;;;;;;12.80;3.67;;;;;;;;;;5149500;27;20109;-71
2023/09/22 12:56:09;;;;;;;8.15;3.35;;;;;;;;;;5151773;27;20034;-71
2023/09/22 12:58:55;;;;;;;13.18;3.78;;;;;;;;;;5157724;27;20474;-72
2023/09/22 13:01:41;;;;;;;12.98;4.03;;;;;;;;;;5165292;27;20040;-72
2023/09/22 13:04:30;;;;;;;10.57;3.22;;;;;;;;;;5160446;27;20018;-72
2023/09/22 13:07:18;;;;;;;7.63;3.28;;;;;;;;;;5139491;27;20755;-73
2023/09/22 13:10:07;;;;;;;10.23;3.83;;;;;;;;;;5157351;27;20590;-72
2023/09/22 13:12:53;;;;;;;13.15;3.65;;;;;;;;;;5155345;27;20046;-73
2023/09/22 13:15:45;;;;;;;9.00;3.50;;;;;;;;;;5154433;27;20034;-73
2023/09/22 13:18:30;;;;;;;14.73;4.18;;;;;;;;;;5161958;27;20026;-70
2023/09/22 13:21:16;;;;;;;8.73;3.55;;;;;;;;;;5150273;27;20860;-73
2023/09/22 13:24:02;;;;;;;11.40;3.58;;;;;;;;;;5156729;27;20562;-73
2023/09/22 13:26:49;;;;;;;12.48;3.58;;;;;;;;;;5158032;27;20093;-73
2023/09/22 13:29:34;;;;;;;10.00;3.50;;;;;;;;;;5154914;27;20050;-71
2023/09/22 13:32:20;;;;;;;11.25;3.47;;;;;;;;;;5155936;27;20018;-71
2023/09/22 13:35:06;;;;;;;8.85;3.55;;;;;;;;;;5156398;27;20037;-71
2023/09/22 13:37:52;;;;;;;11.30;3.70;;;;;;;;;;5157385;27;20105;-72
2023/09/22 13:40:39;;;;;;;13.20;3.55;;;;;;;;;;5158133;27;20034;-71
2023/09/22 13:43:25;;;;;;;11.77;3.80;;;;;;;;;;5159328;27;20371;-72
2023/09/22 13:46:12;;;;;;;13.68;3.67;;;;;;;;;;5162994;27;20041;-71
2023/09/22 13:48:57;;;;;;;14.93;3.83;;;;;;;;;;5140049;27;20041;-72
2023/09/22 13:51:43;;;;;;;12.93;3.50;;;;;;;;;;5162788;27;20022;-74
2023/09/22 13:54:29;;;;;;;16.40;3.78;;;;;;;;;;5159383;27;20014;-72
2023/09/22 13:57:14;;;;;;;11.75;4.00;;;;;;;;;;5152968;27;20035;-72
2023/09/22 14:00:00;;;;;;;25.10;4.25;;;;;;;;;;5148729;27;20023;-72
2023/09/22 14:02:46;;;;;;;11.50;3.53;;;;;;;;;;5152431;27;20501;-71
2023/09/22 14:05:31;;;;;;;9.93;3.65;;;;;;;;;;5154394;27;20018;-72
2023/09/22 14:08:17;;;;;;;15.98;4.32;;;;;;;;;;5159006;27;20720;-71
2023/09/22 14:11:03;;;;;;;23.27;4.57;;;;;;;;;;5158632;27;20023;-71
2023/09/22 14:13:48;;;;;;;13.95;3.80;;;;;;;;;;5140205;27;20113;-71
2023/09/22 14:16:34;;;;;;;14.60;4.13;;;;;;;;;;5158819;27;20022;-71
2023/09/22 14:19:20;;;;;;;14.32;4.18;;;;;;;;;;5143119;27;20090;-72
2023/09/22 14:22:06;;;;;;;17.45;3.80;;;;;;;;;;5154018;27;20035;-72
2023/09/22 14:24:52;;;;;;;14.40;4.07;;;;;;;;;;5157009;27;20022;-71
2023/09/22 14:27:41;;;;;;;10.77;3.78;;;;;;;;;;5151705;27;20061;-71
2023/09/22 14:30:27;;;;;;;20.05;4.28;;;;;;;;;;5148039;27;20032;-72
2023/09/22 14:33:12;;;;;;;10.88;4.18;;;;;;;;;;5159983;27;20045;-72
2023/09/22 14:36:07;;;;;;;13.70;4.30;;;;;;;;;;5158927;27;20061;-71
2023/09/22 14:38:53;;;;;;;11.95;3.70;;;;;;;;;;5158224;27;20049;-71
2023/09/22 14:41:38;;;;;;;11.95;3.75;;;;;;;;;;5156491;27;20026;-72
2023/09/22 14:44:24;;;;;;;14.35;4.25;;;;;;;;;;5158584;27;20325;-72
2023/09/22 14:47:10;;;;;;;15.00;4.45;;;;;;;;;;5158178;27;20105;-71
2023/09/22 14:49:56;;;;;;;10.95;4.10;;;;;;;;;;5160620;27;20039;-72
2023/09/22 14:52:41;;;;;;;14.82;4.40;;;;;;;;;;5158841;27;20031;-71
2023/09/22 14:55:27;;;;;;;12.73;3.88;;;;;;;;;;5166704;27;20363;-72
2023/09/22 14:58:12;;;;;;;13.57;4.38;;;;;;;;;;5166098;27;20541;-72
2023/09/22 15:00:58;;;;;;;9.38;3.65;;;;;;;;;;5155619;27;20497;-72
2023/09/22 15:03:44;;;;;;;15.85;4.18;;;;;;;;;;5161261;27;20372;-72
2023/09/22 15:06:30;;;;;;;14.48;4.40;;;;;;;;;;5159113;27;20353;-72
2023/09/22 15:09:17;;;;;;;20.88;4.47;;;;;;;;;;5167188;27;20698;-72
2023/09/22 15:12:03;;;;;;;18.55;5.05;;;;;;;;;;5157286;27;20447;-72
2023/09/22 15:14:51;;;;;;;10.60;4.40;;;;;;;;;;5159464;27;20095;-72
2023/09/22 15:17:38;;;;;;;14.75;4.78;;;;;;;;;;5164356;27;20030;-72
2023/09/22 15:20:24;;;;;;;12.68;4.20;;;;;;;;;;5163691;27;20037;-72
2023/09/22 15:23:09;;;;;;;21.02;4.55;;;;;;;;;;5151369;27;20046;-72
2023/09/22 15:25:55;;;;;;;15.98;4.55;;;;;;;;;;5153723;27;20014;-73
2023/09/22 15:28:41;;;;;;;17.85;5.45;;;;;;;;;;5162088;27;20023;-72
2023/09/22 15:31:27;;;;;;;18.77;5.20;;;;;;;;;;5150147;27;20014;-72
2023/09/22 15:34:13;;;;;;;15.65;5.40;;;;;;;;;;5143200;27;20126;-73
2023/09/22 15:36:59;;;;;;;18.73;5.00;;;;;;;;;;5158939;27;20026;-72
2023/09/22 15:39:45;;;;;;;15.10;4.57;;;;;;;;;;5159743;27;20050;-72
2023/09/22 15:42:31;;;;;;;15.52;5.25;;;;;;;;;;5159285;27;20086;-72
2023/09/22 15:45:17;;;;;;;20.95;5.50;;;;;;;;;;5158423;27;20440;-72
2023/09/22 15:48:03;;;;;;;14.30;5.55;;;;;;;;;;5152278;27;20053;-72
2023/09/22 15:50:50;;;;;;;22.92;5.65;;;;;;;;;;5160721;27;20307;-73
2023/09/22 15:53:35;;;;;;;21.20;5.72;;;;;;;;;;5159553;27;20413;-72
2023/09/22 15:56:21;;;;;;;22.38;6.03;;;;;;;;;;5143308;27;20530;-72
2023/09/22 15:59:07;;;;;;;25.60;6.32;;;;;;;;;;5146999;27;20484;-71
2023/09/22 16:01:53;;;;;;;22.80;7.03;;;;;;;;;;5162843;27;20045;-71
2023/09/22 16:04:39;;;;;;;23.73;6.78;;;;;;;;;;5144865;27;20030;-72
2023/09/22 16:07:25;;;;;;;15.88;6.80;;;;;;;;;;5145125;27;20102;-72
2023/09/22 16:10:10;;;;;;;31.13;8.10;;;;;;;;;;5159156;27;20154;-70
2023/09/22 16:12:56;;;;;;;23.92;7.53;;;;;;;;;;5159705;27;20483;-72
2023/09/22 16:15:44;;;;;;;36.03;7.57;;;;;;;;;;5144746;27;20027;-72
2023/09/22 16:18:31;;;;;;;20.30;8.02;;;;;;;;;;5143273;27;20030;-72
2023/09/22 16:21:16;;;;;;;24.23;7.85;;;;;;;;;;5168465;27;20467;-72
2023/09/22 16:24:03;;;;;;;29.25;8.70;;;;;;;;;;5142628;27;20333;-72
2023/09/22 16:26:49;;;;;;;31.95;9.35;;;;;;;;;;5163569;27;20511;-72
2023/09/22 16:29:35;;;;;;;28.08;8.60;;;;;;;;;;5151653;27;20030;-72